Flight Track Log - Related Links

Times and Time Zones

All times are in EDT time to prevent confusion due to time zone crossing. See the ASQ4209 flight status page for this flight to view local times or setup timezone preferences in your user account.

Time Position Orientation Groundspeed Altitude Reporting Facility
EDT Latitude Longitude Course Direction KTS MPH feet Rate Location/Type
Fri 07:52:00 PM 30.5731 -96.3583 155° Southeast 154 177 1,100  Level Houston Center
Fri 07:53:03 PM 30.5231 -96.3314 155° Southeast 233 268 3,500 2,118 Climbing Houston Center
Fri 07:53:25 PM 30.5139 -96.3019 110° East 268 308 4,100 2,066 Climbing Houston Center
Fri 07:54:04 PM 30.5078 -96.2492 98° East 265 305 5,600 1,770 Climbing Houston Center
Fri 07:54:26 PM 30.5003 -96.2161 105° East 269 310 5,900 387 Climbing Houston Center
Fri 07:55:06 PM 30.4944 -96.1625 97° East 270 311 6,000 107 Climbing Houston Center
Fri 07:55:22 PM 30.4914 -96.1347 97° East 275 316 6,000  Level Houston Center
Fri 07:56:08 PM 30.4825 -96.0736 100° East 275 316 6,000  Level Houston Center
Fri 07:57:10 PM 30.4700 -95.9928 100° East 275 316 6,000  Level Houston Center
Fri 07:58:12 PM 30.4531 -95.8861 100° East 282 325 6,000  Level Houston Center
Fri 07:58:31 PM 30.4292 -95.8756 159° South 262 302 6,000 98 Level Houston Center
Fri 07:59:13 PM 30.3814 -95.8672 171° South 264 304 6,100  Climbing Houston Center
Fri 07:59:32 PM 30.3567 -95.8644 174° South 265 305 6,000  Descending Houston Center
Fri 08:00:15 PM 30.3083 -95.8556 171° South 264 304 6,100  Climbing Houston Center
Fri 08:00:39 PM 30.2717 -95.8525 176° South 268 308 6,000 -194 Descending Houston Center
Fri 08:01:17 PM 30.2344 -95.8458 171° South 267 307 5,900 -982 Descending Houston Center
Fri 08:02:29 PM 30.1528 -95.7892 149° Southeast 264 304 4,200 -1,210 Descending Houston Center
Fri 08:03:21 PM 30.1147 -95.7522 140° Southeast 261 300 3,400 -632 Descending Houston Center
Fri 08:04:23 PM 30.0625 -95.7061 143° Southeast 246 283 3,000 -136 Descending Houston Center
Fri 08:05:33 PM 30.0006 -95.6331 134° Southeast 264 304 3,100  Climbing Houston Center
Fri 08:06:26 PM 30.0067 -95.5694 84° East 251 289 3,000 -261 Descending Houston Center
Fri 08:07:28 PM 30.0075 -95.5036 89° East 220 253 2,600 -581 Descending Houston Center
Fri 08:08:30 PM 30.0083 -95.4556 89° East 181 208 1,800 -726 Descending Houston Center
Fri 08:09:32 PM 30.0075 -95.4156 91° East 143 165 1,100 -677 Descending Houston Center
Fri 08:10:34 PM 30.0069 -95.3744 91° East 133 153 400 -677 Descending Houston Center
Fri 08:12:00 PM 29.9833 -95.3333 131° Southeast  Level FlightAware

Login

Don't have an account? Register now (free) for customized features, flight alerts, and more!